LIBP/PSR METAR and TAF weather

Enter ICAO airport designator
Station Type Date Time Source
LIBP METAR 2020/11/27 02:20 UTC NOAA

LIBP 270220Z AUTO 23002KT 3900 BR NCD 04/04 Q1023


Station Type Date Time Source
LIBP Decoded METAR 2020/11/27 02:20 UTC NOAA

Pescara, Italy (LIBP) 42-26N 014-12E 11M
Nov 26, 2020 - 09:20 PM EST / 2020.11.27 0220 UTC
Wind: from the SW (230 degrees) at 2 MPH (2 KT):0
Visibility: 2 mile(s):0
Weather: mist
Temperature: 39 F (4 C)
Dew Point: 39 F (4 C)
Relative Humidity: 100%
Pressure (altimeter): 30.21 in. Hg (1023 hPa)
ob: LIBP 270220Z AUTO 23002KT 3900 BR NCD 04/04 Q1023
cycle: 2

Station Type Date Time Source
LIBP TAF 2020/11/26 18:21 UTC NOAA

TAF LIBP 261700Z 2618/2718 VRB05KT CAVOK
TEMPO 2622/2706 4000 BR

Example: see airport list